Time;durP1;ratioP1;P1;durP2;ratioP2;P2;SDS_P1;SDS_P2;PMS_P1;PMS_P2;Temp;Humidity;BMP_temperature;BMP_pressure;BME280_temperature;BME280_humidity;BME280_pressure;Samples;Min_cycle;Max_cycle;Signal;HPM_P1;HPM_P2
2023/06/23 00:02:00;;;;;;;;;;;;;;;22.61;62.91;98280.53;7374095;19;19926;-71
2023/06/23 00:04:28;;;;;;;;;;;;;;;22.63;62.54;98283.81;7366656;19;19929;-70
2023/06/23 00:06:55;;;;;;;;;;;;;;;22.77;61.91;98284.38;7374386;19;19938;-71
2023/06/23 00:09:22;;;;;;;;;;;;;;;22.70;62.16;98300.69;7372135;19;20696;-70
2023/06/23 00:11:49;;;;;;;;;;;;;;;22.70;62.30;98299.88;7373259;19;19925;-71
2023/06/23 00:14:15;;;;;;;;;;;;;;;22.71;62.32;98293.41;7371448;19;19927;-70
2023/06/23 00:16:42;;;;;;;;;;;;;;;22.67;62.81;98301.19;7377184;19;19937;-71
2023/06/23 00:19:09;;;;;;;;;;;;;;;22.69;62.81;98301.75;7373535;19;19923;-72
2023/06/23 00:21:36;;;;;;;;;;;;;;;22.41;63.55;98312.41;7370342;19;19923;-72
2023/06/23 00:24:03;;;;;;;;;;;;;;;22.64;63.00;98304.31;7372934;19;19911;-70
2023/06/23 00:26:29;;;;;;;;;;;;;;;22.63;62.86;98308.09;7371295;19;19933;-71
2023/06/23 00:28:57;;;;;;;;;;;;;;;22.61;62.84;98312.06;7372076;19;19937;-71
2023/06/23 00:31:24;;;;;;;;;;;;;;;22.48;62.95;98318.50;7372728;19;19915;-71
2023/06/23 00:33:50;;;;;;;;;;;;;;;22.37;63.97;98317.44;7371543;19;19922;-72
2023/06/23 00:36:17;;;;;;;;;;;;;;;22.49;63.95;98317.47;7373072;19;19919;-71
2023/06/23 00:38:44;;;;;;;;;;;;;;;22.45;64.30;98332.47;7373949;19;19926;-74
2023/06/23 00:41:11;;;;;;;;;;;;;;;22.41;63.66;98332.13;7375556;19;19922;-74
2023/06/23 00:43:38;;;;;;;;;;;;;;;22.37;64.12;98330.94;7367009;19;19932;-72
2023/06/23 00:46:11;;;;;;;;;;;;;;;22.35;64.15;98325.78;7371674;19;19919;-76
2023/06/23 00:48:38;;;;;;;;;;;;;;;22.33;64.00;98319.00;7368778;19;20505;-71
2023/06/23 00:51:04;;;;;;;;;;;;;;;22.33;63.99;98324.38;7373723;19;19925;-72
2023/06/23 00:53:33;;;;;;;;;;;;;;;22.32;64.16;98312.75;7365041;19;19918;-71
2023/06/23 00:56:00;;;;;;;;;;;;;;;22.22;64.12;98325.16;7371236;19;19922;-71
2023/06/23 00:58:27;;;;;;;;;;;;;;;22.18;64.77;98324.78;7366004;19;19931;-71
2023/06/23 01:00:54;;;;;;;;;;;;;;;22.17;64.43;98328.53;7376144;19;19915;-71
2023/06/23 01:03:21;;;;;;;;;;;;;;;22.08;64.50;98328.03;7367537;19;20359;-72
2023/06/23 01:05:49;;;;;;;;;;;;;;;22.11;64.56;98332.13;7373598;19;19934;-71
2023/06/23 01:08:32;;;;;;;;;;;;;;;22.02;65.04;98331.66;7372126;19;20635;-71
2023/06/23 01:11:02;;;;;;;;;;;;;;;21.96;65.73;98332.59;7374537;19;19933;-71
2023/06/23 01:13:34;;;;;;;;;;;;;;;22.06;65.18;98337.41;7366100;19;19931;-71
2023/06/23 01:16:03;;;;;;;;;;;;;;;22.11;65.12;98335.66;7373931;19;19922;-73
2023/06/23 01:18:40;;;;;;;;;;;;;;;21.86;65.64;98343.91;7362071;19;19925;-72
2023/06/23 01:21:08;;;;;;;;;;;;;;;21.94;66.86;98345.47;7371291;19;19937;-71
2023/06/23 01:23:45;;;;;;;;;;;;;;;21.98;67.60;98357.41;7368309;19;19926;-71
2023/06/23 01:26:26;;;;;;;;;;;;;;;21.76;68.68;98348.22;7367727;19;19956;-71
2023/06/23 01:28:53;;;;;;;;;;;;;;;21.44;69.65;98362.69;7372723;19;19925;-73
2023/06/23 01:31:39;;;;;;;;;;;;;;;21.38;70.27;98363.63;7372055;19;19922;-72
2023/06/23 01:34:07;;;;;;;;;;;;;;;21.30;71.64;98363.03;7373729;19;19943;-75
2023/06/23 01:36:44;;;;;;;;;;;;;;;21.13;72.06;98350.19;7368298;19;19923;-71
2023/06/23 01:39:13;;;;;;;;;;;;;;;20.90;73.37;98361.59;7374134;19;19922;-71
2023/06/23 01:42:07;;;;;;;;;;;;;;;20.88;73.50;98365.56;7366064;19;19936;-72
2023/06/23 01:44:35;;;;;;;;;;;;;;;20.69;74.40;98373.59;7364807;19;19922;-70
2023/06/23 01:47:02;;;;;;;;;;;;;;;20.76;74.88;98366.31;7371482;19;19923;-70
2023/06/23 01:49:30;;;;;;;;;;;;;;;20.56;74.55;98366.50;7370470;19;19922;-71
2023/06/23 01:51:56;;;;;;;;;;;;;;;20.55;75.03;98375.59;7371072;19;19956;-71
2023/06/23 01:54:23;;;;;;;;;;;;;;;20.32;75.89;98373.47;7366957;19;19915;-71
2023/06/23 01:56:50;;;;;;;;;;;;;;;20.36;74.79;98387.31;7369632;19;19923;-74
2023/06/23 01:59:18;;;;;;;;;;;;;;;20.23;73.69;98387.41;7368690;19;19923;-71
2023/06/23 02:01:45;;;;;;;;;;;;;;;20.37;72.87;98389.75;7365861;19;19942;-71
2023/06/23 02:04:12;;;;;;;;;;;;;;;20.25;72.94;98379.94;7369916;19;19929;-70
2023/06/23 02:06:41;;;;;;;;;;;;;;;20.36;72.42;98398.06;7364897;19;19915;-71
2023/06/23 02:09:10;;;;;;;;;;;;;;;20.39;71.96;98405.66;7369151;19;19927;-70
2023/06/23 02:11:37;;;;;;;;;;;;;;;20.44;71.05;98424.66;7366834;19;19933;-71
2023/06/23 02:14:04;;;;;;;;;;;;;;;20.17;72.17;98422.16;7367769;19;20492;-71
2023/06/23 02:16:31;;;;;;;;;;;;;;;20.16;71.14;98428.53;7364888;19;20276;-71
2023/06/23 02:18:58;;;;;;;;;;;;;;;20.24;71.10;98432.84;7371306;19;19927;-71
2023/06/23 02:21:25;;;;;;;;;;;;;;;19.68;73.24;98431.69;7369316;19;20387;-71
2023/06/23 02:23:51;;;;;;;;;;;;;;;19.70;73.32;98434.16;7369058;19;19915;-70
2023/06/23 02:26:18;;;;;;;;;;;;;;;19.63;74.14;98441.38;7371493;19;19914;-74
2023/06/23 02:28:49;;;;;;;;;;;;;;;19.79;73.19;98445.47;7369374;19;19925;-71
2023/06/23 02:31:23;;;;;;;;;;;;;;;19.74;73.86;98451.47;7358736;19;19919;-71
2023/06/23 02:33:50;;;;;;;;;;;;;;;19.72;73.34;98446.34;7361151;19;19959;-72
2023/06/23 02:36:20;;;;;;;;;;;;;;;19.57;73.84;98448.44;7368751;19;20379;-70
2023/06/23 02:38:49;;;;;;;;;;;;;;;19.71;73.19;98454.59;7362969;19;19915;-72
2023/06/23 02:41:18;;;;;;;;;;;;;;;19.76;73.08;98451.28;7373826;19;19926;-72
2023/06/23 02:43:47;;;;;;;;;;;;;;;19.94;72.62;98449.53;7370170;19;19922;-71
2023/06/23 02:46:15;;;;;;;;;;;;;;;19.68;73.02;98455.84;7375527;19;19929;-71
2023/06/23 02:48:43;;;;;;;;;;;;;;;19.68;72.81;98449.66;7370547;19;19923;-71
2023/06/23 02:51:09;;;;;;;;;;;;;;;19.74;72.71;98454.16;7373926;19;19935;-71
2023/06/23 02:53:41;;;;;;;;;;;;;;;19.59;73.46;98454.41;7371620;19;20320;-72
2023/06/23 02:56:15;;;;;;;;;;;;;;;19.69;73.34;98457.47;7375060;19;19925;-70
2023/06/23 02:58:42;;;;;;;;;;;;;;;19.66;72.91;98463.28;7373042;19;20466;-72
2023/06/23 03:01:09;;;;;;;;;;;;;;;19.91;72.30;98458.03;7378297;19;19923;-70
2023/06/23 03:03:36;;;;;;;;;;;;;;;19.93;72.25;98458.66;7374080;19;19918;-70
2023/06/23 03:06:03;;;;;;;;;;;;;;;20.00;71.63;98468.53;7375228;19;19926;-70
2023/06/23 03:08:30;;;;;;;;;;;;;;;19.80;72.52;98469.44;7376252;19;19923;-73
2023/06/23 03:10:56;;;;;;;;;;;;;;;19.90;72.60;98472.47;7380159;19;20335;-70
2023/06/23 03:13:24;;;;;;;;;;;;;;;19.84;72.01;98467.16;7375818;19;19919;-70
2023/06/23 03:15:54;;;;;;;;;;;;;;;19.77;71.71;98474.38;7372597;19;20397;-71
2023/06/23 03:18:22;;;;;;;;;;;;;;;19.92;71.95;98467.72;7376974;19;20357;-71
2023/06/23 03:20:49;;;;;;;;;;;;;;;19.94;71.86;98470.19;7371283;19;19918;-72
2023/06/23 03:23:17;;;;;;;;;;;;;;;19.90;71.46;98482.41;7368755;19;19923;-70
2023/06/23 03:25:46;;;;;;;;;;;;;;;19.96;71.43;98484.25;7371807;19;20336;-70
2023/06/23 03:28:21;;;;;;;;;;;;;;;19.97;71.47;98490.44;7370893;19;19919;-73
2023/06/23 03:30:48;;;;;;;;;;;;;;;20.00;71.41;98495.38;7371611;19;19918;-70
2023/06/23 03:33:21;;;;;;;;;;;;;;;20.02;71.28;98487.94;7379033;19;19925;-72
2023/06/23 03:35:47;;;;;;;;;;;;;;;19.90;71.83;98493.13;7371732;19;19940;-71
2023/06/23 03:38:18;;;;;;;;;;;;;;;20.06;71.60;98495.31;7372078;19;20281;-70
2023/06/23 03:40:46;;;;;;;;;;;;;;;19.85;72.08;98499.16;7372773;19;19918;-71
2023/06/23 03:43:32;;;;;;;;;;;;;;;19.81;72.12;98502.47;7373520;19;19919;-71
2023/06/23 03:46:00;;;;;;;;;;;;;;;19.80;72.18;98506.19;7376987;19;19925;-70
2023/06/23 03:48:28;;;;;;;;;;;;;;;19.83;72.39;98511.16;7375146;19;19942;-70
2023/06/23 03:50:55;;;;;;;;;;;;;;;19.83;71.68;98505.78;7367220;19;19930;-71
2023/06/23 03:53:22;;;;;;;;;;;;;;;19.87;70.93;98506.97;7369721;19;20368;-70
2023/06/23 03:55:49;;;;;;;;;;;;;;;19.87;71.73;98520.41;7366630;19;19931;-70
2023/06/23 03:58:15;;;;;;;;;;;;;;;20.03;70.91;98519.09;7374427;19;19914;-71
2023/06/23 04:00:42;;;;;;;;;;;;;;;19.89;70.96;98516.47;7365366;19;19915;-71
2023/06/23 04:03:09;;;;;;;;;;;;;;;19.88;70.42;98520.22;7370246;19;19934;-70
2023/06/23 04:05:36;;;;;;;;;;;;;;;20.10;69.81;98526.09;7370945;19;19930;-71
2023/06/23 04:08:03;;;;;;;;;;;;;;;20.05;69.78;98527.78;7364184;19;20455;-73
2023/06/23 04:10:30;;;;;;;;;;;;;;;20.14;69.74;98532.72;7371070;19;20037;-70
2023/06/23 04:12:57;;;;;;;;;;;;;;;20.14;69.71;98538.09;7368434;19;19933;-71
2023/06/23 04:15:24;;;;;;;;;;;;;;;20.17;69.98;98534.97;7372867;19;20311;-71
2023/06/23 04:17:51;;;;;;;;;;;;;;;20.12;69.47;98537.47;7369927;19;19929;-70
2023/06/23 04:20:18;;;;;;;;;;;;;;;20.36;68.86;98538.59;7374724;19;19918;-70
2023/06/23 04:22:45;;;;;;;;;;;;;;;20.41;68.59;98545.19;7368129;19;20302;-71
2023/06/23 04:25:12;;;;;;;;;;;;;;;20.23;68.07;98549.41;7367710;19;19918;-72
2023/06/23 04:27:39;;;;;;;;;;;;;;;20.36;68.09;98552.03;7368837;19;19930;-71
2023/06/23 04:30:05;;;;;;;;;;;;;;;20.23;68.85;98559.31;7370047;19;19933;-70
2023/06/23 04:32:33;;;;;;;;;;;;;;;20.36;67.84;98564.63;7366416;19;19923;-71
2023/06/23 04:34:59;;;;;;;;;;;;;;;20.27;68.50;98560.53;7368517;19;19919;-71
2023/06/23 04:37:27;;;;;;;;;;;;;;;20.31;68.15;98572.50;7373656;19;19925;-74
2023/06/23 04:40:02;;;;;;;;;;;;;;;20.45;67.63;98570.59;7370651;19;20322;-74
2023/06/23 04:42:29;;;;;;;;;;;;;;;20.33;67.57;98586.56;7366908;19;19946;-72
2023/06/23 04:44:56;;;;;;;;;;;;;;;20.44;67.48;98588.56;7366720;19;19934;-75
2023/06/23 04:47:24;;;;;;;;;;;;;;;20.12;68.72;98588.50;7367699;19;19990;-72
2023/06/23 04:49:56;;;;;;;;;;;;;;;20.35;67.67;98589.84;7366304;19;19974;-73
2023/06/23 04:52:23;;;;;;;;;;;;;;;20.53;66.86;98591.84;7372891;19;19929;-72
2023/06/23 04:54:49;;;;;;;;;;;;;;;20.69;65.91;98593.22;7365737;19;23245;-76
2023/06/23 04:57:16;;;;;;;;;;;;;;;20.61;66.37;98600.50;7364486;19;19919;-73
2023/06/23 04:59:46;;;;;;;;;;;;;;;20.65;66.33;98600.09;7366243;19;19923;-74
2023/06/23 05:02:12;;;;;;;;;;;;;;;20.59;65.53;98597.22;7361444;19;19926;-73
2023/06/23 05:04:39;;;;;;;;;;;;;;;20.59;66.18;98605.28;7364099;19;20664;-73
2023/06/23 05:07:06;;;;;;;;;;;;;;;20.54;66.56;98606.97;7369967;19;19927;-72
2023/06/23 05:09:33;;;;;;;;;;;;;;;20.28;66.92;98608.69;7367699;19;19924;-77
2023/06/23 05:12:00;;;;;;;;;;;;;;;20.35;66.63;98606.81;7371094;19;20340;-72
2023/06/23 05:14:27;;;;;;;;;;;;;;;20.21;67.26;98604.38;7367525;19;19940;-75
2023/06/23 05:16:54;;;;;;;;;;;;;;;20.29;67.13;98609.50;7355359;19;20297;-73
2023/06/23 05:19:21;;;;;;;;;;;;;;;20.30;66.73;98606.63;7364862;19;20332;-75
2023/06/23 05:21:49;;;;;;;;;;;;;;;20.38;67.30;98619.00;7368619;19;19923;-71
2023/06/23 05:24:19;;;;;;;;;;;;;;;20.12;67.65;98618.03;7359362;19;19935;-73
2023/06/23 05:26:46;;;;;;;;;;;;;;;20.32;66.85;98625.19;7359267;19;20664;-74
2023/06/23 05:29:13;;;;;;;;;;;;;;;20.18;67.86;98616.38;7363769;19;19922;-75
2023/06/23 05:31:41;;;;;;;;;;;;;;;20.10;66.97;98630.03;7355104;19;20349;-74
2023/06/23 05:34:08;;;;;;;;;;;;;;;20.32;66.95;98631.41;7359883;19;19974;-73
2023/06/23 05:36:35;;;;;;;;;;;;;;;20.38;67.47;98629.75;7356923;19;19919;-73
2023/06/23 05:39:01;;;;;;;;;;;;;;;20.56;66.13;98627.22;7362611;19;19926;-73
2023/06/23 05:41:28;;;;;;;;;;;;;;;20.67;66.59;98628.41;7368366;19;19923;-74
2023/06/23 05:43:55;;;;;;;;;;;;;;;20.77;65.96;98638.66;7361696;19;19930;-73
2023/06/23 05:46:23;;;;;;;;;;;;;;;20.43;65.60;98632.59;7369024;19;19926;-74
2023/06/23 05:48:53;;;;;;;;;;;;;;;20.28;65.86;98634.75;7363795;19;19923;-74
2023/06/23 05:51:21;;;;;;;;;;;;;;;20.52;65.49;98636.69;7369760;19;19927;-76
2023/06/23 05:53:48;;;;;;;;;;;;;;;20.52;65.43;98633.19;7359239;19;19911;-74
2023/06/23 05:56:19;;;;;;;;;;;;;;;20.60;64.71;98639.19;7367880;19;19930;-74
2023/06/23 05:58:46;;;;;;;;;;;;;;;20.59;64.50;98629.47;7363757;19;19918;-74
2023/06/23 06:01:19;;;;;;;;;;;;;;;20.56;64.91;98645.19;7369312;19;19947;-76
2023/06/23 06:03:46;;;;;;;;;;;;;;;20.44;65.07;98641.50;7362709;19;19954;-73
2023/06/23 06:06:13;;;;;;;;;;;;;;;20.47;64.75;98641.88;7364011;19;19922;-77
2023/06/23 06:08:40;;;;;;;;;;;;;;;20.66;64.86;98632.13;7362711;19;20623;-73
2023/06/23 06:11:06;;;;;;;;;;;;;;;20.95;64.15;98651.41;7363325;19;19925;-74
2023/06/23 06:13:34;;;;;;;;;;;;;;;20.95;62.92;98651.41;7360319;19;19930;-72
2023/06/23 06:16:01;;;;;;;;;;;;;;;20.99;63.53;98649.94;7365556;19;19942;-73
2023/06/23 06:18:28;;;;;;;;;;;;;;;21.01;63.45;98648.69;7365896;19;19919;-72
2023/06/23 06:20:54;;;;;;;;;;;;;;;20.98;63.52;98657.16;7362652;19;19923;-74
2023/06/23 06:23:21;;;;;;;;;;;;;;;20.94;63.90;98655.97;7365148;19;20369;-72
2023/06/23 06:25:54;;;;;;;;;;;;;;;20.85;63.23;98661.81;7350518;19;20356;-77
2023/06/23 06:28:22;;;;;;;;;;;;;;;21.03;62.68;98664.59;7361140;19;19915;-73
2023/06/23 06:30:49;;;;;;;;;;;;;;;20.93;63.11;98662.41;7361759;19;19919;-74
2023/06/23 06:33:16;;;;;;;;;;;;;;;20.89;63.09;98663.84;7366344;19;19934;-73
2023/06/23 06:35:43;;;;;;;;;;;;;;;21.34;62.03;98679.94;7361608;19;22715;-72
2023/06/23 06:38:09;;;;;;;;;;;;;;;20.96;62.34;98688.03;7363832;19;19934;-75
2023/06/23 06:40:36;;;;;;;;;;;;;;;21.03;63.14;98694.19;7356389;19;19919;-71
2023/06/23 06:43:03;;;;;;;;;;;;;;;21.09;63.12;98706.78;7353403;19;19919;-75
2023/06/23 06:45:29;;;;;;;;;;;;;;;21.09;63.46;98704.09;7362841;19;19923;-76
2023/06/23 06:48:00;;;;;;;;;;;;;;;21.12;62.12;98697.47;7369821;19;20227;-74
2023/06/23 06:50:27;;;;;;;;;;;;;;;21.31;61.88;98717.22;7367161;19;19976;-75
2023/06/23 06:52:53;;;;;;;;;;;;;;;21.37;62.16;98717.16;7354770;19;20450;-72
2023/06/23 06:55:20;;;;;;;;;;;;;;;21.32;62.32;98726.94;7362218;19;19918;-73
2023/06/23 06:57:47;;;;;;;;;;;;;;;21.46;61.73;98723.97;7365334;19;19923;-73
2023/06/23 07:00:16;;;;;;;;;;;;;;;21.20;63.12;98732.19;7362201;19;22253;-74
2023/06/23 07:02:43;;;;;;;;;;;;;;;20.92;62.87;98748.66;7362110;19;19930;-74
2023/06/23 07:05:10;;;;;;;;;;;;;;;20.97;62.84;98748.84;7366331;19;19939;-74
2023/06/23 07:07:37;;;;;;;;;;;;;;;21.04;62.99;98745.09;7363594;19;20357;-73
2023/06/23 07:10:04;;;;;;;;;;;;;;;21.14;61.91;98750.00;7365044;19;20397;-74
2023/06/23 07:12:31;;;;;;;;;;;;;;;21.21;61.59;98761.56;7363965;19;20329;-72
2023/06/23 07:14:58;;;;;;;;;;;;;;;21.47;61.52;98763.31;7357816;19;20009;-72
2023/06/23 07:17:25;;;;;;;;;;;;;;;21.47;60.86;98760.63;7367039;19;19927;-71
2023/06/23 07:19:51;;;;;;;;;;;;;;;21.80;60.65;98767.66;7363296;19;19918;-70
2023/06/23 07:22:19;;;;;;;;;;;;;;;21.38;61.48;98770.00;7366313;19;19940;-73
2023/06/23 07:24:45;;;;;;;;;;;;;;;21.08;60.86;98768.88;7366355;19;19937;-72
2023/06/23 07:27:14;;;;;;;;;;;;;;;21.17;61.42;98779.19;7372525;19;19921;-75
2023/06/23 07:29:42;;;;;;;;;;;;;;;21.08;61.22;98782.31;7371340;19;19919;-71
2023/06/23 07:32:09;;;;;;;;;;;;;;;21.13;61.60;98794.09;7371824;19;19940;-73
2023/06/23 07:34:36;;;;;;;;;;;;;;;20.83;61.46;98791.13;7368618;19;19933;-73
2023/06/23 07:37:02;;;;;;;;;;;;;;;20.98;60.97;98788.97;7374442;19;19923;-73
2023/06/23 07:39:29;;;;;;;;;;;;;;;21.05;61.25;98789.78;7375611;19;20665;-74
2023/06/23 07:41:56;;;;;;;;;;;;;;;21.11;61.49;98788.09;7366669;19;19919;-74
2023/06/23 07:44:23;;;;;;;;;;;;;;;21.16;61.63;98796.34;7370709;19;19925;-72
2023/06/23 07:46:49;;;;;;;;;;;;;;;21.16;60.71;98799.03;7370709;19;19915;-74
2023/06/23 07:49:16;;;;;;;;;;;;;;;21.25;60.33;98799.63;7373085;19;19915;-71
2023/06/23 07:51:43;;;;;;;;;;;;;;;21.37;59.99;98802.47;7362627;19;19927;-72
2023/06/23 07:54:09;;;;;;;;;;;;;;;21.31;61.03;98816.78;7371722;19;19923;-72
2023/06/23 07:56:36;;;;;;;;;;;;;;;21.20;60.26;98810.22;7374213;19;19919;-73
2023/06/23 07:59:03;;;;;;;;;;;;;;;21.10;60.82;98823.28;7374290;19;19923;-72
2023/06/23 08:01:30;;;;;;;;;;;;;;;21.26;60.02;98822.81;7372220;19;19919;-71
2023/06/23 08:03:56;;;;;;;;;;;;;;;21.30;59.71;98824.03;7369464;19;19923;-73
2023/06/23 08:06:24;;;;;;;;;;;;;;;21.17;60.70;98821.38;7372087;19;20350;-74
2023/06/23 08:08:50;;;;;;;;;;;;;;;21.40;60.58;98826.28;7369738;19;19926;-72
2023/06/23 08:11:17;;;;;;;;;;;;;;;21.58;60.27;98821.00;7373440;19;19918;-72
2023/06/23 08:13:44;;;;;;;;;;;;;;;21.70;59.34;98827.38;7372026;19;19926;-73
2023/06/23 08:16:11;;;;;;;;;;;;;;;21.82;58.62;98827.50;7371944;19;19933;-73
2023/06/23 08:18:37;;;;;;;;;;;;;;;21.85;59.19;98837.84;7372527;19;19919;-73
2023/06/23 08:21:04;;;;;;;;;;;;;;;21.92;59.15;98838.63;7374385;19;19929;-71
2023/06/23 08:23:31;;;;;;;;;;;;;;;21.99;58.43;98843.16;7368512;19;19926;-72
2023/06/23 08:26:03;;;;;;;;;;;;;;;22.18;58.33;98839.47;7369480;19;19939;-71
2023/06/23 08:28:30;;;;;;;;;;;;;;;22.14;58.14;98854.41;7372380;19;19927;-72
2023/06/23 08:30:57;;;;;;;;;;;;;;;22.24;57.09;98854.78;7371735;19;20225;-74
2023/06/23 08:33:25;;;;;;;;;;;;;;;22.47;56.82;98847.97;7371724;19;19927;-72
2023/06/23 08:35:51;;;;;;;;;;;;;;;22.84;57.41;98845.34;7367892;19;19933;-72
2023/06/23 08:38:18;;;;;;;;;;;;;;;22.86;55.68;98848.66;7371782;19;19919;-73
2023/06/23 08:40:47;;;;;;;;;;;;;;;23.40;54.25;98845.09;7366011;19;19911;-74
2023/06/23 08:43:13;;;;;;;;;;;;;;;23.19;56.03;98854.50;7367268;19;19929;-75
2023/06/23 08:45:44;;;;;;;;;;;;;;;23.45;54.05;98842.56;7362970;19;20264;-74
2023/06/23 08:48:11;;;;;;;;;;;;;;;23.23;54.24;98844.09;7370265;19;19919;-73
2023/06/23 08:50:38;;;;;;;;;;;;;;;23.44;52.90;98848.19;7371959;19;19941;-74
2023/06/23 08:53:05;;;;;;;;;;;;;;;23.67;52.97;98840.19;7369322;19;19919;-72
2023/06/23 08:55:32;;;;;;;;;;;;;;;23.62;52.46;98850.88;7371349;19;20275;-72
2023/06/23 08:58:03;;;;;;;;;;;;;;;23.11;53.19;98846.72;7369752;19;21854;-75
2023/06/23 09:00:29;;;;;;;;;;;;;;;23.43;52.26;98841.97;7369145;19;19927;-75
2023/06/23 09:02:57;;;;;;;;;;;;;;;23.38;52.58;98841.00;7362233;19;19915;-72
2023/06/23 09:05:24;;;;;;;;;;;;;;;23.95;50.64;98837.97;7369739;19;19994;-76
2023/06/23 09:07:51;;;;;;;;;;;;;;;23.95;50.35;98829.84;7374739;19;19927;-76
2023/06/23 09:10:18;;;;;;;;;;;;;;;24.33;49.97;98842.97;7372307;19;19935;-73
2023/06/23 09:13:04;;;;;;;;;;;;;;;24.83;49.69;98852.50;7366488;19;20617;-75
2023/06/23 09:15:30;;;;;;;;;;;;;;;24.81;48.10;98841.94;7372648;19;19930;-73
2023/06/23 09:17:57;;;;;;;;;;;;;;;25.17;47.51;98851.69;7369700;19;19923;-72
2023/06/23 09:20:25;;;;;;;;;;;;;;;25.25;46.77;98845.09;7367155;19;20364;-74
2023/06/23 09:22:51;;;;;;;;;;;;;;;25.11;48.16;98858.00;7366722;19;19922;-72
2023/06/23 09:25:37;;;;;;;;;;;;;;;25.27;48.08;98850.25;7372998;19;20241;-74
2023/06/23 09:28:05;;;;;;;;;;;;;;;24.94;48.68;98860.63;7366778;19;19915;-73
2023/06/23 09:30:35;;;;;;;;;;;;;;;25.39;47.69;98848.34;7368827;19;19911;-75
2023/06/23 09:33:05;;;;;;;;;;;;;;;25.24;48.37;98846.13;7366383;19;19923;-74
2023/06/23 09:35:31;;;;;;;;;;;;;;;25.31;47.93;98852.25;7372596;19;19923;-75
2023/06/23 09:37:59;;;;;;;;;;;;;;;25.50;46.88;98854.78;7366123;19;19915;-72
2023/06/23 09:40:26;;;;;;;;;;;;;;;25.58;47.28;98848.97;7368880;19;19914;-73
2023/06/23 09:42:59;;;;;;;;;;;;;;;25.09;48.62;98860.16;7367300;19;19923;-74
2023/06/23 09:45:26;;;;;;;;;;;;;;;25.51;49.20;98859.13;7370673;19;19914;-74
2023/06/23 09:47:53;;;;;;;;;;;;;;;25.57;47.10;98850.03;7368351;19;19930;-72
2023/06/23 09:50:21;;;;;;;;;;;;;;;25.47;45.53;98853.38;7371255;19;19914;-74
2023/06/23 09:52:58;;;;;;;;;;;;;;;25.29;47.89;98867.91;7369158;19;19942;-73
2023/06/23 09:55:25;;;;;;;;;;;;;;;25.72;45.62;98850.31;7370839;19;19922;-71
2023/06/23 09:57:52;;;;;;;;;;;;;;;25.78;44.05;98867.50;7369890;19;19942;-72
2023/06/23 10:00:19;;;;;;;;;;;;;;;25.31;45.36;98860.38;7369805;19;19974;-75
2023/06/23 10:02:45;;;;;;;;;;;;;;;25.33;45.30;98863.66;7365981;19;19926;-74
2023/06/23 10:05:18;;;;;;;;;;;;;;;24.84;46.36;98856.88;7365468;19;20006;-73
2023/06/23 10:07:44;;;;;;;;;;;;;;;24.78;46.62;98865.94;7366038;19;20296;-75
2023/06/23 10:10:11;;;;;;;;;;;;;;;24.28;48.17;98868.00;7366727;19;19915;-73
2023/06/23 10:12:58;;;;;;;;;;;;;;;24.16;47.84;98859.03;7365994;19;19914;-74
2023/06/23 10:15:24;;;;;;;;;;;;;;;24.32;46.75;98869.16;7367756;19;19919;-73
2023/06/23 10:17:51;;;;;;;;;;;;;;;24.48;47.70;98878.50;7367994;19;19919;-74
2023/06/23 10:20:18;;;;;;;;;;;;;;;23.94;46.62;98866.03;7365907;19;20615;-74
2023/06/23 10:22:45;;;;;;;;;;;;;;;23.94;48.61;98871.44;7365157;19;19933;-75
2023/06/23 10:25:12;;;;;;;;;;;;;;;23.77;48.85;98882.88;7367279;19;19922;-75
2023/06/23 10:27:40;;;;;;;;;;;;;;;23.81;48.68;98869.75;7369400;19;19927;-73
2023/06/23 10:30:07;;;;;;;;;;;;;;;24.32;46.87;98863.75;7367481;19;19939;-75
2023/06/23 10:32:34;;;;;;;;;;;;;;;24.73;46.02;98859.34;7368504;19;20485;-73
2023/06/23 10:35:03;;;;;;;;;;;;;;;24.81;47.15;98882.53;7364310;19;19933;-72
2023/06/23 10:37:30;;;;;;;;;;;;;;;24.67;47.84;98876.53;7364781;19;19935;-76
2023/06/23 10:40:11;;;;;;;;;;;;;;;24.45;46.02;98868.16;7365430;19;19923;-77
2023/06/23 10:42:37;;;;;;;;;;;;;;;25.03;45.65;98861.09;7367333;19;20035;-72
2023/06/23 10:45:04;;;;;;;;;;;;;;;25.25;46.07;98861.34;7362904;19;22252;-72
2023/06/23 10:47:31;;;;;;;;;;;;;;;24.68;45.08;98871.94;7369727;19;19918;-74
2023/06/23 10:49:58;;;;;;;;;;;;;;;24.27;45.86;98865.53;7365572;19;20563;-74
2023/06/23 10:52:26;;;;;;;;;;;;;;;24.37;46.74;98886.59;7368809;19;19933;-73
2023/06/23 10:54:53;;;;;;;;;;;;;;;24.43;47.11;98885.66;7362185;19;19922;-73
2023/06/23 10:57:20;;;;;;;;;;;;;;;24.49;45.43;98882.06;7369547;19;19926;-75
2023/06/23 11:00:00;;;;;;;;;;;;;;;24.68;46.33;98871.94;7365960;19;19927;-73
2023/06/23 11:02:29;;;;;;;;;;;;;;;25.02;46.06;98867.56;7373707;19;19930;-73
2023/06/23 11:04:57;;;;;;;;;;;;;;;25.32;44.58;98869.31;7372313;19;19919;-73
2023/06/23 11:07:24;;;;;;;;;;;;;;;25.36;45.33;98867.78;7376130;19;19939;-73
2023/06/23 11:10:09;;;;;;;;;;;;;;;25.48;45.02;98868.53;7373056;19;19936;-74
2023/06/23 11:12:38;;;;;;;;;;;;;;;25.12;45.90;98870.50;7374708;19;19919;-71
2023/06/23 11:15:08;;;;;;;;;;;;;;;25.19;45.31;98873.91;7373998;19;22692;-76
2023/06/23 11:17:41;;;;;;;;;;;;;;;25.38;44.91;98877.31;7374106;19;19948;-75
2023/06/23 11:20:10;;;;;;;;;;;;;;;25.43;45.78;98867.63;7370349;19;19923;-73
2023/06/23 11:22:41;;;;;;;;;;;;;;;25.26;43.77;98872.97;7371301;19;19911;-76
2023/06/23 11:25:08;;;;;;;;;;;;;;;25.16;44.98;98874.41;7368745;19;19922;-72
2023/06/23 11:27:36;;;;;;;;;;;;;;;25.09;44.45;98872.84;7371363;19;19948;-73
2023/06/23 11:30:16;;;;;;;;;;;;;;;25.48;44.74;98868.53;7372058;19;20349;-73
2023/06/23 11:32:43;;;;;;;;;;;;;;;25.46;44.88;98876.13;7374733;19;20448;-73
2023/06/23 11:35:10;;;;;;;;;;;;;;;25.71;42.47;98881.19;7372047;19;19927;-72
2023/06/23 11:37:39;;;;;;;;;;;;;;;25.51;43.73;98875.38;7372541;19;20495;-74
2023/06/23 11:40:08;;;;;;;;;;;;;;;25.70;44.09;98874.16;7371323;19;19926;-72
2023/06/23 11:42:36;;;;;;;;;;;;;;;25.70;44.13;98874.16;7371284;19;19923;-74
2023/06/23 11:45:03;;;;;;;;;;;;;;;25.63;42.59;98884.28;7371054;19;19940;-76
2023/06/23 11:47:30;;;;;;;;;;;;;;;25.59;44.85;98883.97;7372666;19;19939;-72
2023/06/23 11:50:03;;;;;;;;;;;;;;;25.80;43.89;98887.03;7369174;19;19914;-75
2023/06/23 11:52:30;;;;;;;;;;;;;;;25.68;44.39;98897.13;7373741;19;19929;-73
2023/06/23 11:54:56;;;;;;;;;;;;;;;25.92;43.65;98889.75;7370647;19;19914;-74
2023/06/23 11:57:24;;;;;;;;;;;;;;;26.14;43.71;98885.25;7375299;19;20281;-74
2023/06/23 11:59:52;;;;;;;;;;;;;;;25.98;42.56;98886.88;7372853;19;19922;-74
2023/06/23 12:02:20;;;;;;;;;;;;;;;25.76;43.00;98892.13;7371994;19;19931;-74
2023/06/23 12:04:48;;;;;;;;;;;;;;;25.80;42.10;98893.31;7373859;19;19918;-75
2023/06/23 12:07:15;;;;;;;;;;;;;;;26.14;42.35;98882.53;7375978;19;19964;-74
2023/06/23 12:09:41;;;;;;;;;;;;;;;26.30;40.94;98883.63;7371409;19;19923;-75
2023/06/23 12:12:08;;;;;;;;;;;;;;;26.45;41.80;98883.06;7370350;19;19923;-74
2023/06/23 12:14:43;;;;;;;;;;;;;;;26.27;41.89;98890.38;7359740;19;19956;-73
2023/06/23 12:17:10;;;;;;;;;;;;;;;26.38;43.10;98885.09;7368477;19;19915;-75
2023/06/23 12:19:38;;;;;;;;;;;;;;;26.71;42.71;98885.13;7367291;19;20241;-74
2023/06/23 12:22:12;;;;;;;;;;;;;;;26.90;42.36;98884.88;7364115;19;19918;-74
2023/06/23 12:24:38;;;;;;;;;;;;;;;26.82;41.07;98874.44;7365003;19;19919;-76
2023/06/23 12:27:05;;;;;;;;;;;;;;;26.54;41.63;98889.78;7369078;19;20460;-73
2023/06/23 12:29:33;;;;;;;;;;;;;;;26.36;39.49;98877.22;7370588;19;20002;-73
2023/06/23 12:31:59;;;;;;;;;;;;;;;26.48;39.30;98885.28;7369800;19;21743;-74
2023/06/23 12:34:33;;;;;;;;;;;;;;;26.27;39.21;98878.69;7366657;19;19994;-73
2023/06/23 12:37:01;;;;;;;;;;;;;;;26.67;36.09;98886.72;7370225;19;19914;-74
2023/06/23 12:39:29;;;;;;;;;;;;;;;26.79;36.44;98885.78;7372383;19;20293;-75
2023/06/23 12:41:57;;;;;;;;;;;;;;;26.91;36.10;98884.63;7369088;19;19915;-74
2023/06/23 12:44:25;;;;;;;;;;;;;;;26.99;36.83;98883.38;7375843;19;19914;-75
2023/06/23 12:46:53;;;;;;;;;;;;;;;26.85;36.90;98890.22;7379802;19;19955;-73
2023/06/23 12:49:27;;;;;;;;;;;;;;;26.28;36.37;98888.50;7376969;19;19919;-74
2023/06/23 12:51:53;;;;;;;;;;;;;;;26.00;35.90;98894.78;7369375;19;20465;-73
2023/06/23 12:54:22;;;;;;;;;;;;;;;25.65;37.25;98897.63;7374767;19;20291;-74